createdAt,value
2018-08-11T00:00:27.267Z,6.67
2018-08-11T00:02:56.023Z,6.50
2018-08-11T00:05:24.507Z,6.73
2018-08-11T00:07:53.088Z,6.53
2018-08-11T00:10:21.593Z,7.00
2018-08-11T00:12:50.018Z,6.90
2018-08-11T00:15:19.506Z,6.47
2018-08-11T00:17:48.053Z,6.33
2018-08-11T00:20:19.562Z,6.70
2018-08-11T00:22:48.032Z,6.70
2018-08-11T00:25:17.130Z,6.03
2018-08-11T00:27:45.577Z,6.47
2018-08-11T00:30:16.289Z,6.73
2018-08-11T00:32:44.906Z,6.07
2018-08-11T00:35:14.460Z,6.17
2018-08-11T00:37:43.590Z,5.47
2018-08-11T00:40:15.875Z,6.10
2018-08-11T00:42:45.444Z,6.13
2018-08-11T00:45:14.907Z,5.77
2018-08-11T00:47:43.384Z,5.20
2018-08-11T00:50:15.539Z,5.00
2018-08-11T00:52:44.058Z,5.10
2018-08-11T00:55:13.702Z,4.93
2018-08-11T00:57:42.494Z,5.07
2018-08-11T01:00:13.740Z,5.30
2018-08-11T01:02:42.499Z,5.40
2018-08-11T01:05:13.421Z,5.17
2018-08-11T01:07:42.415Z,4.60
2018-08-11T01:10:11.702Z,4.47
2018-08-11T01:12:40.909Z,4.43
2018-08-11T01:15:12.614Z,4.87
2018-08-11T01:17:41.102Z,5.10
2018-08-11T01:20:11.062Z,4.33
2018-08-11T01:22:41.592Z,5.00
2018-08-11T01:25:10.947Z,4.60
2018-08-11T01:27:39.439Z,4.13
2018-08-11T01:30:14.459Z,4.60
2018-08-11T01:32:42.987Z,3.83
2018-08-11T01:35:11.839Z,4.43
2018-08-11T01:37:41.393Z,4.40
2018-08-11T01:40:11.391Z,4.10
2018-08-11T01:42:40.605Z,4.23
2018-08-11T01:45:09.981Z,3.77
2018-08-11T01:47:38.883Z,3.47
2018-08-11T01:50:08.539Z,3.40
2018-08-11T01:52:37.283Z,3.70
2018-08-11T01:55:06.251Z,3.43
2018-08-11T01:57:35.031Z,3.57
2018-08-11T02:00:03.829Z,3.17
2018-08-11T02:02:32.290Z,3.60
2018-08-11T02:05:00.690Z,3.10
2018-08-11T02:07:29.111Z,4.23
2018-08-11T02:09:57.659Z,4.57
2018-08-11T02:12:26.078Z,4.47
2018-08-11T02:14:54.521Z,4.70
2018-08-11T02:17:23.002Z,4.27
2018-08-11T02:19:51.457Z,4.07
2018-08-11T02:22:19.974Z,4.77
2018-08-11T02:24:48.791Z,4.43
2018-08-11T02:27:17.347Z,4.63
2018-08-11T02:29:45.858Z,4.30
2018-08-11T02:32:14.362Z,4.33
2018-08-11T02:34:42.903Z,4.57
2018-08-11T02:37:11.583Z,4.50
2018-08-11T02:39:40.102Z,4.03
2018-08-11T02:42:08.713Z,4.23
2018-08-11T02:44:37.184Z,3.70
2018-08-11T02:47:05.595Z,3.87
2018-08-11T02:49:34.072Z,3.33
2018-08-11T02:52:02.575Z,3.47
2018-08-11T02:54:31.021Z,3.40
2018-08-11T02:56:59.461Z,3.10
2018-08-11T02:59:27.926Z,3.40
2018-08-11T03:01:56.330Z,2.83
2018-08-11T03:04:24.736Z,3.20
2018-08-11T03:06:53.320Z,3.40
2018-08-11T03:09:21.858Z,2.90
2018-08-11T03:11:50.308Z,2.33
2018-08-11T03:14:18.904Z,2.60
2018-08-11T03:16:47.447Z,2.40
2018-08-11T03:19:15.876Z,2.43
2018-08-11T03:21:44.612Z,2.27
2018-08-11T03:24:13.035Z,2.47
2018-08-11T03:26:41.475Z,2.00
2018-08-11T03:29:09.912Z,2.33
2018-08-11T03:31:38.538Z,2.40
2018-08-11T03:34:07.107Z,2.30
2018-08-11T03:36:35.594Z,2.37
2018-08-11T03:39:05.806Z,1.97
2018-08-11T03:41:34.246Z,2.23
2018-08-11T03:44:02.677Z,2.03
2018-08-11T03:46:31.134Z,2.20
2018-08-11T03:48:59.749Z,2.00
2018-08-11T03:51:28.185Z,2.00
2018-08-11T03:53:56.714Z,1.97
2018-08-11T03:56:25.277Z,2.23
2018-08-11T03:58:53.691Z,1.70
2018-08-11T04:01:22.121Z,3.23
2018-08-11T04:03:50.578Z,2.80
2018-08-11T04:06:18.974Z,2.63
2018-08-11T04:08:47.464Z,2.57
2018-08-11T04:11:16.011Z,2.40
2018-08-11T04:13:44.535Z,2.20
2018-08-11T04:16:13.003Z,2.27
2018-08-11T04:18:41.506Z,2.30
2018-08-11T04:21:10.034Z,2.10
2018-08-11T04:23:38.454Z,2.20
2018-08-11T04:26:06.943Z,2.17
2018-08-11T04:28:35.387Z,1.80
2018-08-11T04:31:03.808Z,2.27
2018-08-11T04:33:32.275Z,1.80
2018-08-11T04:36:00.755Z,1.90
2018-08-11T04:38:29.155Z,2.33
2018-08-11T04:40:57.689Z,2.10
2018-08-11T04:43:26.172Z,2.20
2018-08-11T04:45:54.672Z,2.00
2018-08-11T04:48:23.153Z,1.53
2018-08-11T04:50:51.611Z,1.80
2018-08-11T04:53:20.031Z,1.90
2018-08-11T04:55:48.689Z,1.63
2018-08-11T04:58:17.098Z,1.80
2018-08-11T05:00:45.649Z,2.27
2018-08-11T05:03:14.265Z,1.87
2018-08-11T05:05:42.666Z,1.63
2018-08-11T05:08:11.172Z,1.63
2018-08-11T05:10:39.653Z,1.60
2018-08-11T05:13:08.157Z,1.57
2018-08-11T05:15:36.582Z,1.50
2018-08-11T05:18:05.556Z,1.67
2018-08-11T05:20:33.994Z,1.47
2018-08-11T05:23:02.412Z,1.33
2018-08-11T05:25:30.944Z,1.60
2018-08-11T05:27:59.395Z,1.50
2018-08-11T05:30:27.795Z,1.30
2018-08-11T05:32:56.259Z,1.23
2018-08-11T05:35:24.711Z,1.20
2018-08-11T05:37:53.151Z,1.37
2018-08-11T05:40:21.618Z,1.50
2018-08-11T05:42:50.043Z,2.40
2018-08-11T05:45:18.476Z,1.70
2018-08-11T05:47:46.984Z,1.30
2018-08-11T05:50:15.516Z,1.50
2018-08-11T05:52:44.050Z,1.10
2018-08-11T05:55:12.583Z,1.70
2018-08-11T05:57:41.210Z,1.50
2018-08-11T06:00:10.443Z,1.20
2018-08-11T06:02:39.117Z,1.10
2018-08-11T06:05:08.977Z,1.10
2018-08-11T06:07:37.519Z,1.70
2018-08-11T06:10:07.445Z,1.60
2018-08-11T06:12:36.405Z,1.40
2018-08-11T06:15:05.380Z,1.40
2018-08-11T06:17:33.857Z,1.57
2018-08-11T06:20:02.371Z,1.53
2018-08-11T06:22:30.816Z,1.30
2018-08-11T06:24:59.475Z,1.67
2018-08-11T06:27:27.952Z,1.57
2018-08-11T06:29:56.356Z,1.43
2018-08-11T06:32:24.840Z,1.50
2018-08-11T06:34:53.288Z,1.73
2018-08-11T06:37:21.724Z,1.63
2018-08-11T06:39:50.210Z,1.97
2018-08-11T06:42:18.761Z,1.80
2018-08-11T06:44:47.697Z,1.97
2018-08-11T06:47:16.202Z,1.63
2018-08-11T06:49:44.695Z,2.17
2018-08-11T06:52:13.194Z,1.70
2018-08-11T06:54:41.694Z,2.00
2018-08-11T06:57:10.421Z,2.00
2018-08-11T06:59:38.939Z,2.03
2018-08-11T07:02:07.651Z,2.33
2018-08-11T07:04:36.206Z,2.00
2018-08-11T07:07:04.992Z,2.03
2018-08-11T07:09:33.651Z,2.00
2018-08-11T07:12:02.087Z,2.07
2018-08-11T07:14:30.489Z,2.00
2018-08-11T07:16:59.103Z,1.90
2018-08-11T07:19:27.697Z,2.57
2018-08-11T07:21:56.126Z,2.20
2018-08-11T07:24:24.576Z,2.00
2018-08-11T07:26:53.042Z,2.30
2018-08-11T07:29:21.496Z,2.30
2018-08-11T07:31:50.356Z,2.20
2018-08-11T07:34:18.762Z,2.60
2018-08-11T07:36:47.454Z,1.93
2018-08-11T07:39:16.171Z,2.10
2018-08-11T07:41:44.822Z,2.03
2018-08-11T07:44:13.257Z,2.37
2018-08-11T07:46:41.864Z,2.20
2018-08-11T07:49:10.387Z,1.90
2018-08-11T07:51:38.848Z,2.03
2018-08-11T07:54:07.315Z,2.37
2018-08-11T07:56:35.721Z,2.80
2018-08-11T07:59:04.428Z,2.37
2018-08-11T08:01:33.106Z,2.70
2018-08-11T08:04:01.543Z,3.03
2018-08-11T08:06:29.967Z,2.40
2018-08-11T08:08:58.479Z,3.10
2018-08-11T08:11:26.906Z,3.57
2018-08-11T08:13:55.699Z,3.00
2018-08-11T08:16:24.166Z,3.20
2018-08-11T08:18:52.588Z,2.70
2018-08-11T08:21:21.154Z,3.27
2018-08-11T08:23:49.837Z,2.87
2018-08-11T08:26:18.504Z,3.23
2018-08-11T08:28:47.094Z,2.67
2018-08-11T08:31:15.922Z,2.53
2018-08-11T08:33:44.370Z,2.27
2018-08-11T08:36:12.979Z,2.20
2018-08-11T08:38:41.425Z,2.70
2018-08-11T08:41:10.096Z,3.60
2018-08-11T08:43:38.759Z,2.23
2018-08-11T08:46:07.220Z,9.43
2018-08-11T08:48:35.719Z,32.20
2018-08-11T08:51:04.320Z,4.00
2018-08-11T08:53:32.902Z,2.00
2018-08-11T08:56:01.391Z,1.90
2018-08-11T08:58:30.016Z,2.50
2018-08-11T09:00:58.548Z,2.90
2018-08-11T09:03:27.254Z,2.60
2018-08-11T09:05:55.672Z,2.47
2018-08-11T09:08:24.184Z,2.00
2018-08-11T09:10:52.877Z,2.20
2018-08-11T09:13:21.355Z,1.80
2018-08-11T09:15:49.771Z,1.93
2018-08-11T09:18:18.435Z,2.37
2018-08-11T09:20:46.834Z,2.33
2018-08-11T09:23:15.306Z,1.97
2018-08-11T09:25:43.948Z,2.30
2018-08-11T09:28:12.454Z,2.03
2018-08-11T09:30:41.122Z,2.10
2018-08-11T09:33:09.573Z,9.87
2018-08-11T09:35:37.984Z,2.57
2018-08-11T09:38:06.459Z,2.53
2018-08-11T09:40:35.028Z,2.53
2018-08-11T09:43:03.483Z,2.57
2018-08-11T09:45:32.002Z,2.60
2018-08-11T09:48:00.736Z,2.27
2018-08-11T09:50:29.310Z,2.53
2018-08-11T09:52:57.754Z,2.70
2018-08-11T09:55:26.450Z,2.40
2018-08-11T09:57:54.949Z,2.53
2018-08-11T10:00:28.918Z,2.23
2018-08-11T10:02:57.444Z,1.90
2018-08-11T10:05:25.916Z,2.00
2018-08-11T10:07:54.406Z,1.90
2018-08-11T10:10:22.868Z,2.13
2018-08-11T10:15:32.574Z,1.67
2018-08-11T10:18:01.019Z,1.23
2018-08-11T10:20:29.486Z,1.60
2018-08-11T10:22:57.940Z,1.50
2018-08-11T10:25:26.822Z,1.97
2018-08-11T10:27:55.386Z,1.30
2018-08-11T10:30:23.986Z,1.43
2018-08-11T10:32:52.385Z,1.60
2018-08-11T10:35:20.886Z,1.53
2018-08-11T10:37:49.322Z,1.40
2018-08-11T10:40:17.883Z,1.70
2018-08-11T10:42:46.598Z,1.50
2018-08-11T10:45:14.998Z,1.50
2018-08-11T10:47:43.594Z,1.60
2018-08-11T10:50:12.250Z,1.37
2018-08-11T10:52:40.664Z,3.93
2018-08-11T10:55:09.103Z,2.60
2018-08-11T10:57:37.889Z,1.57
2018-08-11T11:00:06.383Z,1.60
2018-08-11T11:02:34.965Z,1.23
2018-08-11T11:05:03.543Z,1.40
2018-08-11T11:07:32.068Z,1.10
2018-08-11T11:10:00.584Z,1.30
2018-08-11T11:12:29.065Z,1.37
2018-08-11T11:14:57.486Z,1.23
2018-08-11T11:17:25.982Z,1.20
2018-08-11T11:19:54.401Z,1.47
2018-08-11T11:22:22.784Z,1.60
2018-08-11T11:24:51.486Z,1.50
2018-08-11T11:27:19.954Z,1.27
2018-08-11T11:29:48.512Z,1.60
2018-08-11T11:32:16.969Z,1.70
2018-08-11T11:34:45.387Z,1.83
2018-08-11T11:37:13.834Z,2.00
2018-08-11T11:39:42.617Z,1.70
2018-08-11T11:42:11.050Z,1.60
2018-08-11T11:44:39.476Z,1.70
2018-08-11T11:47:07.918Z,1.67
2018-08-11T11:49:36.349Z,1.50
2018-08-11T11:52:04.759Z,2.00
2018-08-11T11:54:33.589Z,2.33
2018-08-11T11:57:02.247Z,2.40
2018-08-11T11:59:30.839Z,2.43
2018-08-11T12:01:59.462Z,1.73
2018-08-11T12:04:28.156Z,1.57
2018-08-11T12:06:56.598Z,4.10
2018-08-11T12:09:25.047Z,1.40
2018-08-11T12:11:53.498Z,1.63
2018-08-11T12:14:21.962Z,2.00
2018-08-11T12:16:50.492Z,1.80
2018-08-11T12:19:18.962Z,1.40
2018-08-11T12:21:47.551Z,1.20
2018-08-11T12:24:16.088Z,1.20
2018-08-11T12:26:44.539Z,1.43
2018-08-11T12:29:13.003Z,1.30
2018-08-11T12:31:41.407Z,1.50
2018-08-11T12:34:09.812Z,1.20
2018-08-11T12:36:38.284Z,1.40
2018-08-11T12:39:08.552Z,1.20
2018-08-11T12:41:36.962Z,1.43
2018-08-11T12:44:05.410Z,1.50
2018-08-11T12:46:33.844Z,1.23
2018-08-11T12:49:02.338Z,1.00
2018-08-11T12:51:30.739Z,1.23
2018-08-11T12:53:59.165Z,1.10
2018-08-11T12:56:27.579Z,1.13
2018-08-11T12:58:56.390Z,1.00
2018-08-11T13:01:24.824Z,1.40
2018-08-11T13:03:53.357Z,1.00
2018-08-11T13:06:21.758Z,1.33
2018-08-11T13:08:50.295Z,1.40
2018-08-11T13:11:18.735Z,1.27
2018-08-11T13:13:47.201Z,1.53
2018-08-11T13:16:15.654Z,1.03
2018-08-11T13:18:44.375Z,1.20
2018-08-11T13:21:12.799Z,1.33
2018-08-11T13:23:41.206Z,1.13
2018-08-11T13:26:09.646Z,0.93
2018-08-11T13:28:38.210Z,0.90
2018-08-11T13:31:06.911Z,0.90
2018-08-11T13:33:35.394Z,0.97
2018-08-11T13:36:03.992Z,0.87
2018-08-11T13:38:33.085Z,0.93
2018-08-11T13:41:01.739Z,1.00
2018-08-11T13:43:30.197Z,0.77
2018-08-11T13:45:59.281Z,1.20
2018-08-11T13:48:27.776Z,1.43
2018-08-11T13:50:56.878Z,0.70
2018-08-11T13:53:25.857Z,0.80
2018-08-11T13:55:54.927Z,0.70
2018-08-11T13:58:23.958Z,0.60
2018-08-11T14:00:52.935Z,0.80
2018-08-11T14:03:22.277Z,0.70
2018-08-11T14:05:50.746Z,0.80
2018-08-11T14:08:19.938Z,0.78
2018-08-11T14:10:49.009Z,0.88
2018-08-11T14:13:17.987Z,0.57
2018-08-11T14:15:46.958Z,0.60
2018-08-11T14:18:15.407Z,0.80
2018-08-11T14:20:43.935Z,0.67
2018-08-11T14:23:12.652Z,0.70
2018-08-11T14:25:41.120Z,0.70
2018-08-11T14:28:09.695Z,0.53
2018-08-11T14:30:38.694Z,1.20
2018-08-11T14:33:07.701Z,0.70
2018-08-11T14:35:36.688Z,0.60
2018-08-11T14:38:05.665Z,0.75
2018-08-11T14:40:34.696Z,0.57
2018-08-11T14:43:03.722Z,0.75
2018-08-11T14:45:32.775Z,0.62
2018-08-11T14:48:01.950Z,0.55
2018-08-11T14:50:31.083Z,0.60
2018-08-11T14:53:00.238Z,0.60
2018-08-11T14:55:29.273Z,0.55
2018-08-11T14:57:58.556Z,0.68
2018-08-11T15:00:27.607Z,0.53
2018-08-11T15:02:56.571Z,0.35
2018-08-11T15:05:25.621Z,0.60
2018-08-11T15:07:54.591Z,0.57
2018-08-11T15:10:23.570Z,0.70
2018-08-11T15:12:52.665Z,0.57
2018-08-11T15:15:21.630Z,0.57
2018-08-11T15:17:50.614Z,0.60
2018-08-11T15:20:19.639Z,0.60
2018-08-11T15:22:48.605Z,0.70
2018-08-11T15:25:17.569Z,0.50
2018-08-11T15:27:46.592Z,0.60
2018-08-11T15:30:15.589Z,0.68
2018-08-11T15:32:44.539Z,0.82
2018-08-11T15:35:13.525Z,0.80
2018-08-11T15:37:42.495Z,0.70
2018-08-11T15:40:11.481Z,0.62
2018-08-11T15:42:40.441Z,0.60
2018-08-11T15:45:09.436Z,0.60
2018-08-11T15:47:38.467Z,0.70
2018-08-11T15:50:07.647Z,0.60
2018-08-11T15:52:36.841Z,0.85
2018-08-11T15:55:06.135Z,0.80
2018-08-11T15:57:35.102Z,0.60
2018-08-11T16:00:05.002Z,0.80
2018-08-11T16:02:34.080Z,0.50
2018-08-11T16:05:03.055Z,0.57
2018-08-11T16:07:32.039Z,1.72
2018-08-11T16:10:00.462Z,0.60
2018-08-11T16:12:28.943Z,0.60
2018-08-11T16:14:57.402Z,1.03
2018-08-11T16:17:25.833Z,0.87
2018-08-11T16:19:54.293Z,0.50
2018-08-11T16:22:22.749Z,0.60
2018-08-11T16:24:51.160Z,0.60
2018-08-11T16:27:19.625Z,0.60
2018-08-11T16:29:48.057Z,0.80
2018-08-11T16:32:16.519Z,0.50
2018-08-11T16:34:44.969Z,0.60
2018-08-11T16:37:13.954Z,0.80
2018-08-11T16:39:42.340Z,0.90
2018-08-11T16:42:10.830Z,0.70
2018-08-11T16:44:39.324Z,0.97
2018-08-11T16:47:07.754Z,0.60
2018-08-11T16:49:36.219Z,0.60
2018-08-11T16:52:04.891Z,0.80
2018-08-11T16:54:33.305Z,0.60
2018-08-11T16:57:01.751Z,0.60
2018-08-11T16:59:30.230Z,0.87
2018-08-11T17:01:58.822Z,0.60
2018-08-11T17:04:27.228Z,0.80
2018-08-11T17:06:55.660Z,0.57
2018-08-11T17:09:24.064Z,0.80
2018-08-11T17:11:52.500Z,0.80
2018-08-11T17:14:20.977Z,0.50
2018-08-11T17:16:49.421Z,0.50
2018-08-11T17:19:17.843Z,0.63
2018-08-11T17:21:46.964Z,0.77
2018-08-11T17:24:15.386Z,0.50
2018-08-11T17:26:43.811Z,0.73
2018-08-11T17:29:12.380Z,0.70
2018-08-11T17:31:40.875Z,0.70
2018-08-11T17:34:09.364Z,0.60
2018-08-11T17:36:37.765Z,0.60
2018-08-11T17:39:08.478Z,0.70
2018-08-11T17:41:37.046Z,1.00
2018-08-11T17:44:05.505Z,1.33
2018-08-11T17:46:33.906Z,1.70
2018-08-11T17:49:02.371Z,1.80
2018-08-11T17:51:30.989Z,6.47
2018-08-11T17:53:59.435Z,3.70
2018-08-11T17:56:28.014Z,2.13
2018-08-11T17:58:56.471Z,0.93
2018-08-11T18:01:25.018Z,0.90
2018-08-11T18:03:53.689Z,1.10
2018-08-11T18:06:22.103Z,1.40
2018-08-11T18:08:50.525Z,2.37
2018-08-11T18:11:19.011Z,2.87
2018-08-11T18:13:47.492Z,1.00
2018-08-11T18:16:15.900Z,2.13
2018-08-11T18:18:44.338Z,1.10
2018-08-11T18:21:12.738Z,1.80
2018-08-11T18:23:41.180Z,1.23
2018-08-11T18:26:09.746Z,1.30
2018-08-11T18:28:38.188Z,1.40
2018-08-11T18:31:06.633Z,1.40
2018-08-11T18:33:35.062Z,1.20
2018-08-11T18:36:03.471Z,0.87
2018-08-11T18:38:31.994Z,0.97
2018-08-11T18:41:00.379Z,1.10
2018-08-11T18:43:28.877Z,1.13
2018-08-11T18:45:57.558Z,0.90
2018-08-11T18:48:25.994Z,1.20
2018-08-11T18:50:54.386Z,1.00
2018-08-11T18:53:22.909Z,0.80
2018-08-11T18:55:51.356Z,1.20
2018-08-11T18:58:19.767Z,1.00
2018-08-11T19:00:48.205Z,5.70
2018-08-11T19:03:16.637Z,4.70
2018-08-11T19:05:45.130Z,4.67
2018-08-11T19:08:13.916Z,2.63
2018-08-11T19:10:42.346Z,1.93
2018-08-11T19:13:10.996Z,2.30
2018-08-11T19:15:39.498Z,1.80
2018-08-11T19:18:08.762Z,1.60
2018-08-11T19:20:37.192Z,1.87
2018-08-11T19:23:05.739Z,1.80
2018-08-11T19:25:34.228Z,1.63
2018-08-11T19:28:02.859Z,1.63
2018-08-11T19:30:31.299Z,1.90
2018-08-11T19:32:59.727Z,1.90
2018-08-11T19:35:28.343Z,1.70
2018-08-11T19:37:56.850Z,1.67
2018-08-11T19:40:25.382Z,9.77
2018-08-11T19:42:53.822Z,12.50
2018-08-11T19:45:22.238Z,4.27
2018-08-11T19:47:50.752Z,3.33
2018-08-11T19:50:19.200Z,2.80
2018-08-11T19:52:47.639Z,3.13
2018-08-11T19:55:16.076Z,2.90
2018-08-11T19:57:44.639Z,3.17
2018-08-11T20:00:14.420Z,2.70
2018-08-11T20:02:43.189Z,2.60
2018-08-11T20:05:12.167Z,2.13
2018-08-11T20:07:41.085Z,2.80
2018-08-11T20:10:09.525Z,3.00
2018-08-11T20:12:38.527Z,2.93
2018-08-11T20:15:08.307Z,2.93
2018-08-11T20:17:36.750Z,3.00
2018-08-11T20:20:05.753Z,3.00
2018-08-11T20:22:34.170Z,3.53
2018-08-11T20:25:02.618Z,3.37
2018-08-11T20:27:31.226Z,2.93
2018-08-11T20:29:59.688Z,4.40
2018-08-11T20:32:28.075Z,4.03
2018-08-11T20:34:56.542Z,6.80
2018-08-11T20:37:24.950Z,5.40
2018-08-11T20:39:53.439Z,5.10
2018-08-11T20:42:21.843Z,3.30
2018-08-11T20:44:50.273Z,2.70
2018-08-11T20:47:18.698Z,3.27
2018-08-11T20:49:47.351Z,2.50
2018-08-11T20:52:15.819Z,2.80
2018-08-11T20:54:44.219Z,2.80
2018-08-11T20:57:12.714Z,2.50
2018-08-11T20:59:41.146Z,2.47
2018-08-11T21:02:09.620Z,2.30
2018-08-11T21:04:39.058Z,2.67
2018-08-11T21:07:07.568Z,2.90
2018-08-11T21:09:36.002Z,3.30
2018-08-11T21:12:04.480Z,2.50
2018-08-11T21:14:32.979Z,2.80
2018-08-11T21:17:01.532Z,10.50
2018-08-11T21:19:29.947Z,16.67
2018-08-11T21:21:58.431Z,10.93
2018-08-11T21:24:26.854Z,6.00
2018-08-11T21:26:55.287Z,3.47
2018-08-11T21:29:23.806Z,3.13
2018-08-11T21:31:53.150Z,3.67
2018-08-11T21:34:21.584Z,2.77
2018-08-11T21:36:50.009Z,3.53
2018-08-11T21:39:18.452Z,3.30
2018-08-11T21:41:46.879Z,3.90
2018-08-11T21:44:15.323Z,3.70
2018-08-11T21:46:43.779Z,3.60
2018-08-11T21:49:12.289Z,3.73
2018-08-11T21:51:40.871Z,3.10
2018-08-11T21:54:09.538Z,4.30
2018-08-11T21:56:38.184Z,3.53
2018-08-11T21:59:07.042Z,3.63
2018-08-11T22:01:35.446Z,3.40
2018-08-11T22:04:04.636Z,3.87
2018-08-11T22:06:33.082Z,3.77
2018-08-11T22:09:01.530Z,3.83
2018-08-11T22:11:30.128Z,3.00
2018-08-11T22:13:58.626Z,3.57
2018-08-11T22:16:27.096Z,9.57
2018-08-11T22:18:55.562Z,4.47
2018-08-11T22:21:24.201Z,3.80
2018-08-11T22:23:52.703Z,4.10
2018-08-11T22:26:21.230Z,4.30
2018-08-11T22:28:49.833Z,4.43
2018-08-11T22:31:18.406Z,4.50
2018-08-11T22:33:46.895Z,4.63
2018-08-11T22:36:15.462Z,4.87
2018-08-11T22:38:44.760Z,4.67
2018-08-11T22:41:13.392Z,4.27
2018-08-11T22:43:41.852Z,3.97
2018-08-11T22:46:10.388Z,3.90
2018-08-11T22:48:38.886Z,4.23
2018-08-11T22:51:07.429Z,4.30
2018-08-11T22:53:35.915Z,3.57
2018-08-11T22:56:04.379Z,3.80
2018-08-11T22:58:32.877Z,3.90
2018-08-11T23:01:01.323Z,3.83
2018-08-11T23:03:29.869Z,3.80
2018-08-11T23:05:58.367Z,3.47
2018-08-11T23:08:27.159Z,3.80
2018-08-11T23:10:55.844Z,3.80
2018-08-11T23:13:24.274Z,3.83
2018-08-11T23:15:52.870Z,3.40
2018-08-11T23:18:21.364Z,3.30
2018-08-11T23:20:49.856Z,3.77
2018-08-11T23:23:18.342Z,3.50
2018-08-11T23:25:46.882Z,3.20
2018-08-11T23:28:15.313Z,3.43
2018-08-11T23:30:43.971Z,3.20
2018-08-11T23:33:12.449Z,3.37
2018-08-11T23:35:41.127Z,3.50
2018-08-11T23:38:09.680Z,4.60
2018-08-11T23:40:38.265Z,3.67
2018-08-11T23:43:06.867Z,4.13
2018-08-11T23:45:35.295Z,4.40
2018-08-11T23:48:03.848Z,4.20
2018-08-11T23:50:32.422Z,4.80
2018-08-11T23:53:00.910Z,4.67
2018-08-11T23:55:29.506Z,4.60
2018-08-11T23:57:57.946Z,5.53
